sensor_id;sensor_type;location;lat;lon;timestamp;P1;durP1;ratioP1;P2;durP2;ratioP2
19643;SDS011;9970;-36.854;174.870;2023-07-31T00:01:40;1.10;;;1.10;;
19643;SDS011;9970;-36.854;174.870;2023-07-31T00:04:18;0.90;;;0.90;;
19643;SDS011;9970;-36.854;174.870;2023-07-31T00:06:51;1.00;;;1.00;;
19643;SDS011;9970;-36.854;174.870;2023-07-31T00:09:25;0.90;;;0.90;;
19643;SDS011;9970;-36.854;174.870;2023-07-31T00:11:59;1.00;;;1.00;;
19643;SDS011;9970;-36.854;174.870;2023-07-31T00:14:33;1.60;;;1.50;;
19643;SDS011;9970;-36.854;174.870;2023-07-31T00:17:06;1.10;;;1.10;;
19643;SDS011;9970;-36.854;174.870;2023-07-31T00:19:44;1.20;;;1.20;;
19643;SDS011;9970;-36.854;174.870;2023-07-31T00:22:18;1.10;;;1.10;;
19643;SDS011;9970;-36.854;174.870;2023-07-31T00:24:51;1.10;;;1.10;;
19643;SDS011;9970;-36.854;174.870;2023-07-31T00:27:24;1.10;;;1.10;;
19643;SDS011;9970;-36.854;174.870;2023-07-31T00:29:56;1.10;;;1.10;;
19643;SDS011;9970;-36.854;174.870;2023-07-31T00:32:30;2.47;;;1.60;;
19643;SDS011;9970;-36.854;174.870;2023-07-31T00:35:03;2.17;;;2.07;;
19643;SDS011;9970;-36.854;174.870;2023-07-31T00:37:36;1.97;;;1.87;;
19643;SDS011;9970;-36.854;174.870;2023-07-31T00:40:09;2.93;;;2.17;;
19643;SDS011;9970;-36.854;174.870;2023-07-31T00:42:45;1.50;;;1.50;;
19643;SDS011;9970;-36.854;174.870;2023-07-31T00:45:22;4.93;;;1.50;;
19643;SDS011;9970;-36.854;174.870;2023-07-31T00:47:57;1.70;;;1.57;;
19643;SDS011;9970;-36.854;174.870;2023-07-31T00:50:30;1.80;;;1.43;;
19643;SDS011;9970;-36.854;174.870;2023-07-31T00:53:04;1.40;;;1.40;;
19643;SDS011;9970;-36.854;174.870;2023-07-31T00:55:37;1.70;;;1.70;;
19643;SDS011;9970;-36.854;174.870;2023-07-31T00:58:10;2.23;;;2.13;;
19643;SDS011;9970;-36.854;174.870;2023-07-31T01:00:43;2.10;;;2.00;;
19643;SDS011;9970;-36.854;174.870;2023-07-31T01:03:16;1.67;;;1.57;;
19643;SDS011;9970;-36.854;174.870;2023-07-31T01:08:30;1.40;;;1.30;;
19643;SDS011;9970;-36.854;174.870;2023-07-31T01:11:52;2.07;;;1.90;;
19643;SDS011;9970;-36.854;174.870;2023-07-31T01:13:44;5.27;;;1.60;;
19643;SDS011;9970;-36.854;174.870;2023-07-31T01:16:17;4.53;;;1.30;;
19643;SDS011;9970;-36.854;174.870;2023-07-31T01:18:50;2.37;;;2.17;;
19643;SDS011;9970;-36.854;174.870;2023-07-31T01:22:11;1.40;;;1.40;;
19643;SDS011;9970;-36.854;174.870;2023-07-31T01:27:08;1.30;;;1.27;;
19643;SDS011;9970;-36.854;174.870;2023-07-31T01:29:38;5.13;;;2.27;;
19643;SDS011;9970;-36.854;174.870;2023-07-31T01:32:12;1.67;;;1.33;;
19643;SDS011;9970;-36.854;174.870;2023-07-31T01:34:47;1.77;;;1.60;;
19643;SDS011;9970;-36.854;174.870;2023-07-31T01:37:22;1.40;;;1.30;;
19643;SDS011;9970;-36.854;174.870;2023-07-31T01:39:57;1.20;;;1.20;;
19643;SDS011;9970;-36.854;174.870;2023-07-31T01:42:30;1.40;;;1.40;;
19643;SDS011;9970;-36.854;174.870;2023-07-31T01:45:03;1.50;;;1.40;;
19643;SDS011;9970;-36.854;174.870;2023-07-31T01:47:37;1.30;;;1.20;;
19643;SDS011;9970;-36.854;174.870;2023-07-31T01:50:11;1.37;;;1.37;;
19643;SDS011;9970;-36.854;174.870;2023-07-31T01:52:43;1.50;;;1.40;;
19643;SDS011;9970;-36.854;174.870;2023-07-31T01:55:17;1.30;;;1.30;;
19643;SDS011;9970;-36.854;174.870;2023-07-31T01:57:49;1.53;;;1.40;;
19643;SDS011;9970;-36.854;174.870;2023-07-31T02:00:22;1.30;;;1.30;;
19643;SDS011;9970;-36.854;174.870;2023-07-31T02:02:56;5.73;;;1.33;;
19643;SDS011;9970;-36.854;174.870;2023-07-31T02:05:30;11.33;;;1.73;;
19643;SDS011;9970;-36.854;174.870;2023-07-31T02:08:04;2.07;;;1.47;;
19643;SDS011;9970;-36.854;174.870;2023-07-31T02:10:37;1.60;;;1.50;;
19643;SDS011;9970;-36.854;174.870;2023-07-31T02:13:10;2.00;;;1.10;;
19643;SDS011;9970;-36.854;174.870;2023-07-31T02:15:43;1.00;;;1.00;;
19643;SDS011;9970;-36.854;174.870;2023-07-31T02:18:16;1.00;;;1.00;;
19643;SDS011;9970;-36.854;174.870;2023-07-31T02:20:52;1.33;;;1.33;;
19643;SDS011;9970;-36.854;174.870;2023-07-31T02:23:25;1.00;;;1.00;;
19643;SDS011;9970;-36.854;174.870;2023-07-31T02:25:58;1.00;;;1.00;;
19643;SDS011;9970;-36.854;174.870;2023-07-31T02:28:31;2.10;;;1.13;;
19643;SDS011;9970;-36.854;174.870;2023-07-31T02:31:04;0.90;;;0.90;;
19643;SDS011;9970;-36.854;174.870;2023-07-31T02:33:37;1.27;;;1.10;;
19643;SDS011;9970;-36.854;174.870;2023-07-31T02:36:10;2.83;;;1.40;;
19643;SDS011;9970;-36.854;174.870;2023-07-31T02:38:44;1.53;;;1.00;;
19643;SDS011;9970;-36.854;174.870;2023-07-31T02:41:17;1.10;;;1.10;;
19643;SDS011;9970;-36.854;174.870;2023-07-31T02:43:50;1.03;;;1.03;;
19643;SDS011;9970;-36.854;174.870;2023-07-31T02:46:23;3.03;;;1.20;;
19643;SDS011;9970;-36.854;174.870;2023-07-31T02:48:56;1.00;;;1.00;;
19643;SDS011;9970;-36.854;174.870;2023-07-31T02:51:29;1.00;;;1.00;;
19643;SDS011;9970;-36.854;174.870;2023-07-31T02:54:02;1.00;;;1.00;;
19643;SDS011;9970;-36.854;174.870;2023-07-31T02:56:35;1.00;;;1.00;;
19643;SDS011;9970;-36.854;174.870;2023-07-31T02:59:09;1.10;;;1.10;;
19643;SDS011;9970;-36.854;174.870;2023-07-31T03:01:42;1.10;;;1.10;;
19643;SDS011;9970;-36.854;174.870;2023-07-31T03:04:15;2.87;;;1.70;;
19643;SDS011;9970;-36.854;174.870;2023-07-31T03:06:48;2.87;;;1.23;;
19643;SDS011;9970;-36.854;174.870;2023-07-31T03:09:21;1.10;;;1.10;;
19643;SDS011;9970;-36.854;174.870;2023-07-31T03:11:55;1.00;;;1.00;;
19643;SDS011;9970;-36.854;174.870;2023-07-31T03:14:28;1.87;;;1.03;;
19643;SDS011;9970;-36.854;174.870;2023-07-31T03:17:01;1.00;;;1.00;;
19643;SDS011;9970;-36.854;174.870;2023-07-31T03:19:34;1.03;;;1.03;;
19643;SDS011;9970;-36.854;174.870;2023-07-31T03:22:06;1.00;;;1.00;;
19643;SDS011;9970;-36.854;174.870;2023-07-31T03:24:39;1.27;;;1.27;;
19643;SDS011;9970;-36.854;174.870;2023-07-31T03:27:12;2.23;;;2.10;;
19643;SDS011;9970;-36.854;174.870;2023-07-31T03:29:45;1.00;;;1.00;;
19643;SDS011;9970;-36.854;174.870;2023-07-31T03:32:19;2.07;;;1.40;;
19643;SDS011;9970;-36.854;174.870;2023-07-31T03:34:52;1.23;;;1.13;;
19643;SDS011;9970;-36.854;174.870;2023-07-31T03:37:25;1.20;;;1.20;;
19643;SDS011;9970;-36.854;174.870;2023-07-31T03:39:58;1.10;;;1.10;;
19643;SDS011;9970;-36.854;174.870;2023-07-31T03:42:36;1.03;;;1.00;;
19643;SDS011;9970;-36.854;174.870;2023-07-31T03:45:09;1.00;;;1.00;;
19643;SDS011;9970;-36.854;174.870;2023-07-31T03:47:42;0.90;;;0.90;;
19643;SDS011;9970;-36.854;174.870;2023-07-31T03:50:16;1.10;;;1.10;;
19643;SDS011;9970;-36.854;174.870;2023-07-31T03:52:49;1.37;;;1.37;;
19643;SDS011;9970;-36.854;174.870;2023-07-31T03:55:22;1.37;;;1.10;;
19643;SDS011;9970;-36.854;174.870;2023-07-31T03:57:55;1.40;;;1.40;;
19643;SDS011;9970;-36.854;174.870;2023-07-31T04:00:29;1.00;;;1.00;;
19643;SDS011;9970;-36.854;174.870;2023-07-31T04:03:02;2.40;;;1.67;;
19643;SDS011;9970;-36.854;174.870;2023-07-31T04:05:37;1.47;;;1.47;;
19643;SDS011;9970;-36.854;174.870;2023-07-31T04:08:09;3.80;;;1.60;;
19643;SDS011;9970;-36.854;174.870;2023-07-31T04:10:43;0.90;;;0.90;;
19643;SDS011;9970;-36.854;174.870;2023-07-31T04:13:17;1.27;;;1.27;;
19643;SDS011;9970;-36.854;174.870;2023-07-31T04:15:50;1.20;;;1.20;;
19643;SDS011;9970;-36.854;174.870;2023-07-31T04:18:24;4.40;;;1.33;;
19643;SDS011;9970;-36.854;174.870;2023-07-31T04:20:57;1.47;;;1.47;;
19643;SDS011;9970;-36.854;174.870;2023-07-31T04:23:30;2.20;;;1.50;;
19643;SDS011;9970;-36.854;174.870;2023-07-31T04:26:04;1.10;;;1.10;;
19643;SDS011;9970;-36.854;174.870;2023-07-31T04:28:37;1.30;;;1.30;;
19643;SDS011;9970;-36.854;174.870;2023-07-31T04:31:10;1.30;;;1.30;;
19643;SDS011;9970;-36.854;174.870;2023-07-31T04:33:47;1.23;;;1.13;;
19643;SDS011;9970;-36.854;174.870;2023-07-31T04:36:20;3.27;;;1.63;;
19643;SDS011;9970;-36.854;174.870;2023-07-31T04:38:53;1.10;;;1.10;;
19643;SDS011;9970;-36.854;174.870;2023-07-31T04:41:26;1.27;;;1.20;;
19643;SDS011;9970;-36.854;174.870;2023-07-31T04:43:59;1.30;;;1.30;;
19643;SDS011;9970;-36.854;174.870;2023-07-31T04:46:33;3.10;;;2.90;;
19643;SDS011;9970;-36.854;174.870;2023-07-31T04:49:07;3.20;;;3.10;;
19643;SDS011;9970;-36.854;174.870;2023-07-31T04:51:40;3.60;;;1.37;;
19643;SDS011;9970;-36.854;174.870;2023-07-31T04:54:14;2.03;;;1.70;;
19643;SDS011;9970;-36.854;174.870;2023-07-31T04:56:52;1.30;;;1.30;;
19643;SDS011;9970;-36.854;174.870;2023-07-31T04:59:25;1.20;;;1.20;;
19643;SDS011;9970;-36.854;174.870;2023-07-31T05:01:58;1.10;;;1.10;;
19643;SDS011;9970;-36.854;174.870;2023-07-31T05:04:33;2.00;;;1.20;;
19643;SDS011;9970;-36.854;174.870;2023-07-31T05:07:06;2.80;;;1.40;;
19643;SDS011;9970;-36.854;174.870;2023-07-31T05:09:39;1.00;;;1.00;;
19643;SDS011;9970;-36.854;174.870;2023-07-31T05:12:13;1.00;;;1.00;;
19643;SDS011;9970;-36.854;174.870;2023-07-31T05:14:46;1.20;;;1.10;;
19643;SDS011;9970;-36.854;174.870;2023-07-31T05:17:19;1.07;;;1.07;;
19643;SDS011;9970;-36.854;174.870;2023-07-31T05:19:52;3.70;;;1.77;;
19643;SDS011;9970;-36.854;174.870;2023-07-31T05:22:25;1.30;;;1.30;;
19643;SDS011;9970;-36.854;174.870;2023-07-31T05:24:58;4.63;;;1.20;;
19643;SDS011;9970;-36.854;174.870;2023-07-31T05:27:31;1.30;;;1.30;;
19643;SDS011;9970;-36.854;174.870;2023-07-31T05:30:05;3.40;;;1.00;;
19643;SDS011;9970;-36.854;174.870;2023-07-31T05:32:38;1.10;;;1.10;;
19643;SDS011;9970;-36.854;174.870;2023-07-31T05:35:11;1.10;;;1.10;;
19643;SDS011;9970;-36.854;174.870;2023-07-31T05:37:44;1.30;;;1.30;;
19643;SDS011;9970;-36.854;174.870;2023-07-31T05:40:17;1.47;;;0.97;;
19643;SDS011;9970;-36.854;174.870;2023-07-31T05:42:50;2.30;;;1.00;;
19643;SDS011;9970;-36.854;174.870;2023-07-31T05:45:23;1.20;;;1.20;;
19643;SDS011;9970;-36.854;174.870;2023-07-31T05:47:56;1.10;;;1.10;;
19643;SDS011;9970;-36.854;174.870;2023-07-31T05:50:29;2.30;;;1.10;;
19643;SDS011;9970;-36.854;174.870;2023-07-31T05:53:02;1.20;;;1.20;;
19643;SDS011;9970;-36.854;174.870;2023-07-31T05:55:35;1.70;;;1.70;;
19643;SDS011;9970;-36.854;174.870;2023-07-31T05:58:09;1.60;;;1.50;;
19643;SDS011;9970;-36.854;174.870;2023-07-31T06:00:42;2.20;;;2.10;;
19643;SDS011;9970;-36.854;174.870;2023-07-31T06:03:15;4.20;;;3.90;;
19643;SDS011;9970;-36.854;174.870;2023-07-31T06:05:48;4.33;;;4.13;;
19643;SDS011;9970;-36.854;174.870;2023-07-31T06:08:25;4.63;;;4.33;;
19643;SDS011;9970;-36.854;174.870;2023-07-31T06:10:58;10.23;;;9.20;;
19643;SDS011;9970;-36.854;174.870;2023-07-31T06:13:32;13.13;;;11.83;;
19643;SDS011;9970;-36.854;174.870;2023-07-31T06:16:05;13.40;;;12.00;;
19643;SDS011;9970;-36.854;174.870;2023-07-31T06:18:38;14.60;;;13.10;;
19643;SDS011;9970;-36.854;174.870;2023-07-31T06:21:11;13.83;;;12.03;;
19643;SDS011;9970;-36.854;174.870;2023-07-31T06:23:44;14.20;;;11.00;;
19643;SDS011;9970;-36.854;174.870;2023-07-31T06:26:17;19.13;;;13.43;;
19643;SDS011;9970;-36.854;174.870;2023-07-31T06:28:50;13.77;;;10.77;;
19643;SDS011;9970;-36.854;174.870;2023-07-31T06:31:23;11.40;;;10.20;;
19643;SDS011;9970;-36.854;174.870;2023-07-31T06:33:56;8.80;;;7.93;;
19643;SDS011;9970;-36.854;174.870;2023-07-31T06:36:29;6.83;;;6.23;;
19643;SDS011;9970;-36.854;174.870;2023-07-31T06:39:02;7.37;;;6.30;;
19643;SDS011;9970;-36.854;174.870;2023-07-31T06:41:35;6.70;;;6.10;;
19643;SDS011;9970;-36.854;174.870;2023-07-31T06:44:09;9.20;;;8.30;;
19643;SDS011;9970;-36.854;174.870;2023-07-31T06:46:42;11.80;;;10.57;;
19643;SDS011;9970;-36.854;174.870;2023-07-31T06:49:15;9.50;;;8.50;;
19643;SDS011;9970;-36.854;174.870;2023-07-31T06:51:48;10.80;;;9.63;;
19643;SDS011;9970;-36.854;174.870;2023-07-31T06:54:21;9.73;;;8.40;;
19643;SDS011;9970;-36.854;174.870;2023-07-31T06:56:54;7.37;;;6.60;;
19643;SDS011;9970;-36.854;174.870;2023-07-31T06:59:27;7.13;;;6.00;;
19643;SDS011;9970;-36.854;174.870;2023-07-31T07:02:00;7.33;;;6.70;;
19643;SDS011;9970;-36.854;174.870;2023-07-31T07:04:34;7.47;;;6.80;;
19643;SDS011;9970;-36.854;174.870;2023-07-31T07:07:07;9.73;;;8.07;;
19643;SDS011;9970;-36.854;174.870;2023-07-31T07:09:40;7.27;;;6.67;;
19643;SDS011;9970;-36.854;174.870;2023-07-31T07:12:13;5.50;;;5.10;;
19643;SDS011;9970;-36.854;174.870;2023-07-31T07:14:46;6.00;;;5.20;;
19643;SDS011;9970;-36.854;174.870;2023-07-31T07:17:19;4.03;;;3.93;;
19643;SDS011;9970;-36.854;174.870;2023-07-31T07:19:52;8.27;;;4.27;;
19643;SDS011;9970;-36.854;174.870;2023-07-31T07:22:25;4.90;;;4.60;;
19643;SDS011;9970;-36.854;174.870;2023-07-31T07:25:01;5.20;;;4.73;;
19643;SDS011;9970;-36.854;174.870;2023-07-31T07:27:35;5.30;;;4.60;;
19643;SDS011;9970;-36.854;174.870;2023-07-31T07:30:08;3.80;;;3.67;;
19643;SDS011;9970;-36.854;174.870;2023-07-31T07:32:42;4.50;;;3.70;;
19643;SDS011;9970;-36.854;174.870;2023-07-31T07:35:14;4.30;;;4.00;;
19643;SDS011;9970;-36.854;174.870;2023-07-31T07:37:48;5.03;;;4.63;;
19643;SDS011;9970;-36.854;174.870;2023-07-31T07:40:21;5.30;;;5.00;;
19643;SDS011;9970;-36.854;174.870;2023-07-31T07:42:54;6.97;;;6.27;;
19643;SDS011;9970;-36.854;174.870;2023-07-31T07:45:27;9.17;;;7.33;;
19643;SDS011;9970;-36.854;174.870;2023-07-31T07:48:00;8.73;;;7.43;;
19643;SDS011;9970;-36.854;174.870;2023-07-31T07:50:33;17.37;;;9.00;;
19643;SDS011;9970;-36.854;174.870;2023-07-31T07:53:06;10.47;;;6.77;;
19643;SDS011;9970;-36.854;174.870;2023-07-31T07:55:39;9.03;;;6.53;;
19643;SDS011;9970;-36.854;174.870;2023-07-31T07:58:12;12.17;;;5.60;;
19643;SDS011;9970;-36.854;174.870;2023-07-31T08:00:49;5.50;;;5.10;;
19643;SDS011;9970;-36.854;174.870;2023-07-31T08:03:22;6.90;;;6.00;;
19643;SDS011;9970;-36.854;174.870;2023-07-31T08:06:01;7.57;;;5.97;;
19643;SDS011;9970;-36.854;174.870;2023-07-31T08:08:35;7.07;;;4.83;;
19643;SDS011;9970;-36.854;174.870;2023-07-31T08:11:08;8.60;;;4.83;;
19643;SDS011;9970;-36.854;174.870;2023-07-31T08:13:41;5.50;;;5.00;;
19643;SDS011;9970;-36.854;174.870;2023-07-31T08:16:14;6.27;;;5.67;;
19643;SDS011;9970;-36.854;174.870;2023-07-31T08:18:47;6.67;;;5.80;;
19643;SDS011;9970;-36.854;174.870;2023-07-31T08:21:25;7.33;;;6.43;;
19643;SDS011;9970;-36.854;174.870;2023-07-31T08:23:58;11.67;;;6.80;;
19643;SDS011;9970;-36.854;174.870;2023-07-31T08:26:31;9.80;;;6.90;;
19643;SDS011;9970;-36.854;174.870;2023-07-31T08:29:04;11.13;;;8.83;;
19643;SDS011;9970;-36.854;174.870;2023-07-31T08:31:37;19.10;;;12.77;;
19643;SDS011;9970;-36.854;174.870;2023-07-31T08:34:10;18.47;;;11.60;;
19643;SDS011;9970;-36.854;174.870;2023-07-31T08:36:43;13.23;;;9.07;;
19643;SDS011;9970;-36.854;174.870;2023-07-31T08:39:16;12.00;;;10.03;;
19643;SDS011;9970;-36.854;174.870;2023-07-31T08:41:49;11.17;;;7.10;;
19643;SDS011;9970;-36.854;174.870;2023-07-31T08:44:22;9.90;;;8.03;;
19643;SDS011;9970;-36.854;174.870;2023-07-31T08:46:56;7.43;;;6.73;;
19643;SDS011;9970;-36.854;174.870;2023-07-31T08:49:29;8.07;;;7.43;;
19643;SDS011;9970;-36.854;174.870;2023-07-31T08:52:03;7.53;;;6.57;;
19643;SDS011;9970;-36.854;174.870;2023-07-31T08:54:37;6.77;;;6.13;;
19643;SDS011;9970;-36.854;174.870;2023-07-31T08:57:10;6.23;;;5.67;;
19643;SDS011;9970;-36.854;174.870;2023-07-31T08:59:44;6.47;;;5.30;;
19643;SDS011;9970;-36.854;174.870;2023-07-31T09:02:18;6.40;;;5.90;;
19643;SDS011;9970;-36.854;174.870;2023-07-31T09:04:52;9.73;;;5.50;;
19643;SDS011;9970;-36.854;174.870;2023-07-31T09:07:28;5.67;;;5.20;;
19643;SDS011;9970;-36.854;174.870;2023-07-31T09:10:08;5.87;;;5.00;;
19643;SDS011;9970;-36.854;174.870;2023-07-31T09:12:41;7.57;;;5.27;;
19643;SDS011;9970;-36.854;174.870;2023-07-31T09:15:16;10.13;;;7.87;;
19643;SDS011;9970;-36.854;174.870;2023-07-31T09:17:58;7.87;;;7.17;;
19643;SDS011;9970;-36.854;174.870;2023-07-31T09:20:28;8.40;;;7.60;;
19643;SDS011;9970;-36.854;174.870;2023-07-31T09:25:43;7.90;;;5.90;;
19643;SDS011;9970;-36.854;174.870;2023-07-31T09:28:17;8.17;;;5.70;;
19643;SDS011;9970;-36.854;174.870;2023-07-31T09:30:51;7.43;;;6.70;;
19643;SDS011;9970;-36.854;174.870;2023-07-31T09:33:24;7.83;;;5.87;;
19643;SDS011;9970;-36.854;174.870;2023-07-31T09:35:58;4.60;;;4.20;;
19643;SDS011;9970;-36.854;174.870;2023-07-31T09:38:31;5.87;;;5.37;;
19643;SDS011;9970;-36.854;174.870;2023-07-31T09:41:04;6.17;;;5.30;;
19643;SDS011;9970;-36.854;174.870;2023-07-31T09:43:38;6.90;;;6.17;;
19643;SDS011;9970;-36.854;174.870;2023-07-31T09:46:13;6.63;;;6.13;;
19643;SDS011;9970;-36.854;174.870;2023-07-31T09:48:44;8.90;;;6.60;;
19643;SDS011;9970;-36.854;174.870;2023-07-31T09:51:17;8.83;;;7.93;;
19643;SDS011;9970;-36.854;174.870;2023-07-31T09:53:52;15.40;;;8.60;;
19643;SDS011;9970;-36.854;174.870;2023-07-31T09:56:26;7.83;;;7.10;;
19643;SDS011;9970;-36.854;174.870;2023-07-31T09:58:59;9.90;;;7.60;;
19643;SDS011;9970;-36.854;174.870;2023-07-31T10:01:32;10.50;;;7.30;;
19643;SDS011;9970;-36.854;174.870;2023-07-31T10:04:06;10.00;;;6.30;;
19643;SDS011;9970;-36.854;174.870;2023-07-31T10:06:41;5.20;;;4.80;;
19643;SDS011;9970;-36.854;174.870;2023-07-31T10:09:15;9.47;;;7.00;;
19643;SDS011;9970;-36.854;174.870;2023-07-31T10:11:55;7.77;;;5.47;;
19643;SDS011;9970;-36.854;174.870;2023-07-31T10:14:26;9.47;;;5.43;;
19643;SDS011;9970;-36.854;174.870;2023-07-31T10:17:05;5.97;;;5.60;;
19643;SDS011;9970;-36.854;174.870;2023-07-31T10:19:39;8.50;;;5.60;;
19643;SDS011;9970;-36.854;174.870;2023-07-31T10:22:13;7.27;;;6.57;;
19643;SDS011;9970;-36.854;174.870;2023-07-31T10:24:48;5.57;;;5.10;;
19643;SDS011;9970;-36.854;174.870;2023-07-31T10:27:21;4.33;;;4.00;;
19643;SDS011;9970;-36.854;174.870;2023-07-31T10:29:55;4.37;;;3.97;;
19643;SDS011;9970;-36.854;174.870;2023-07-31T10:32:29;7.97;;;4.90;;
19643;SDS011;9970;-36.854;174.870;2023-07-31T10:35:03;4.60;;;4.20;;
19643;SDS011;9970;-36.854;174.870;2023-07-31T10:37:37;4.40;;;4.10;;
19643;SDS011;9970;-36.854;174.870;2023-07-31T10:40:13;4.87;;;3.63;;
19643;SDS011;9970;-36.854;174.870;2023-07-31T10:42:56;6.20;;;5.13;;
19643;SDS011;9970;-36.854;174.870;2023-07-31T10:45:33;8.30;;;4.60;;
19643;SDS011;9970;-36.854;174.870;2023-07-31T10:50:49;4.57;;;4.27;;
19643;SDS011;9970;-36.854;174.870;2023-07-31T10:53:28;7.37;;;5.20;;
19643;SDS011;9970;-36.854;174.870;2023-07-31T10:56:04;6.73;;;5.13;;
19643;SDS011;9970;-36.854;174.870;2023-07-31T10:58:38;5.73;;;4.97;;
19643;SDS011;9970;-36.854;174.870;2023-07-31T11:01:12;5.03;;;4.73;;
19643;SDS011;9970;-36.854;174.870;2023-07-31T11:03:49;4.80;;;4.40;;
19643;SDS011;9970;-36.854;174.870;2023-07-31T11:06:22;4.80;;;4.40;;
19643;SDS011;9970;-36.854;174.870;2023-07-31T11:08:56;6.43;;;4.57;;
19643;SDS011;9970;-36.854;174.870;2023-07-31T11:11:29;4.93;;;4.40;;
19643;SDS011;9970;-36.854;174.870;2023-07-31T11:14:05;5.60;;;5.20;;
19643;SDS011;9970;-36.854;174.870;2023-07-31T11:16:39;6.70;;;5.40;;
19643;SDS011;9970;-36.854;174.870;2023-07-31T11:19:13;3.70;;;3.40;;
19643;SDS011;9970;-36.854;174.870;2023-07-31T11:21:46;4.37;;;4.10;;
19643;SDS011;9970;-36.854;174.870;2023-07-31T11:24:20;6.30;;;5.70;;
19643;SDS011;9970;-36.854;174.870;2023-07-31T11:26:53;4.03;;;3.83;;
19643;SDS011;9970;-36.854;174.870;2023-07-31T11:29:27;4.33;;;3.97;;
19643;SDS011;9970;-36.854;174.870;2023-07-31T11:32:00;10.33;;;4.80;;
19643;SDS011;9970;-36.854;174.870;2023-07-31T11:34:33;3.23;;;3.03;;
19643;SDS011;9970;-36.854;174.870;2023-07-31T11:37:07;3.17;;;3.07;;
19643;SDS011;9970;-36.854;174.870;2023-07-31T11:39:40;3.33;;;3.10;;
19643;SDS011;9970;-36.854;174.870;2023-07-31T11:42:13;5.67;;;3.37;;
19643;SDS011;9970;-36.854;174.870;2023-07-31T11:44:47;4.17;;;3.30;;
19643;SDS011;9970;-36.854;174.870;2023-07-31T11:47:19;3.80;;;3.00;;
19643;SDS011;9970;-36.854;174.870;2023-07-31T11:49:57;3.47;;;2.77;;
19643;SDS011;9970;-36.854;174.870;2023-07-31T11:52:31;3.37;;;3.07;;
19643;SDS011;9970;-36.854;174.870;2023-07-31T11:55:06;3.33;;;2.70;;
19643;SDS011;9970;-36.854;174.870;2023-07-31T11:57:42;4.80;;;3.97;;
19643;SDS011;9970;-36.854;174.870;2023-07-31T12:00:16;4.17;;;2.97;;
19643;SDS011;9970;-36.854;174.870;2023-07-31T12:02:50;3.03;;;2.90;;
19643;SDS011;9970;-36.854;174.870;2023-07-31T12:05:24;3.57;;;3.27;;
19643;SDS011;9970;-36.854;174.870;2023-07-31T12:07:57;3.03;;;2.93;;
19643;SDS011;9970;-36.854;174.870;2023-07-31T12:10:30;3.93;;;3.63;;
19643;SDS011;9970;-36.854;174.870;2023-07-31T12:13:04;3.47;;;3.10;;
19643;SDS011;9970;-36.854;174.870;2023-07-31T12:15:43;4.13;;;3.73;;
19643;SDS011;9970;-36.854;174.870;2023-07-31T12:18:18;3.73;;;2.90;;
19643;SDS011;9970;-36.854;174.870;2023-07-31T12:20:57;4.20;;;3.77;;
19643;SDS011;9970;-36.854;174.870;2023-07-31T12:23:31;3.00;;;2.90;;
19643;SDS011;9970;-36.854;174.870;2023-07-31T12:26:08;5.87;;;4.30;;
19643;SDS011;9970;-36.854;174.870;2023-07-31T12:28:43;5.93;;;3.47;;
19643;SDS011;9970;-36.854;174.870;2023-07-31T12:31:23;5.27;;;3.43;;
19643;SDS011;9970;-36.854;174.870;2023-07-31T12:33:58;3.20;;;3.00;;
19643;SDS011;9970;-36.854;174.870;2023-07-31T12:36:32;3.10;;;2.90;;
19643;SDS011;9970;-36.854;174.870;2023-07-31T12:39:06;3.07;;;2.97;;
19643;SDS011;9970;-36.854;174.870;2023-07-31T12:41:39;4.10;;;3.80;;
19643;SDS011;9970;-36.854;174.870;2023-07-31T12:44:12;3.07;;;2.87;;
19643;SDS011;9970;-36.854;174.870;2023-07-31T12:46:45;3.90;;;3.43;;
19643;SDS011;9970;-36.854;174.870;2023-07-31T12:49:18;3.03;;;2.73;;
19643;SDS011;9970;-36.854;174.870;2023-07-31T12:51:51;3.30;;;3.10;;
19643;SDS011;9970;-36.854;174.870;2023-07-31T12:54:24;3.83;;;3.33;;
19643;SDS011;9970;-36.854;174.870;2023-07-31T12:56:57;2.83;;;2.70;;
19643;SDS011;9970;-36.854;174.870;2023-07-31T12:59:30;2.97;;;2.67;;
19643;SDS011;9970;-36.854;174.870;2023-07-31T13:02:03;4.53;;;4.23;;
19643;SDS011;9970;-36.854;174.870;2023-07-31T13:04:36;11.40;;;4.87;;
19643;SDS011;9970;-36.854;174.870;2023-07-31T13:07:09;4.20;;;3.77;;
19643;SDS011;9970;-36.854;174.870;2023-07-31T13:09:42;6.80;;;3.17;;
19643;SDS011;9970;-36.854;174.870;2023-07-31T13:12:15;3.10;;;3.00;;
19643;SDS011;9970;-36.854;174.870;2023-07-31T13:14:48;3.43;;;3.20;;
19643;SDS011;9970;-36.854;174.870;2023-07-31T13:17:21;2.70;;;2.47;;
19643;SDS011;9970;-36.854;174.870;2023-07-31T13:19:55;2.90;;;2.50;;
19643;SDS011;9970;-36.854;174.870;2023-07-31T13:22:28;3.67;;;3.20;;
19643;SDS011;9970;-36.854;174.870;2023-07-31T13:25:02;4.07;;;3.77;;
19643;SDS011;9970;-36.854;174.870;2023-07-31T13:27:35;2.33;;;2.07;;
19643;SDS011;9970;-36.854;174.870;2023-07-31T13:30:08;4.30;;;2.73;;
19643;SDS011;9970;-36.854;174.870;2023-07-31T13:32:43;2.30;;;2.20;;
19643;SDS011;9970;-36.854;174.870;2023-07-31T13:35:16;2.20;;;2.10;;
19643;SDS011;9970;-36.854;174.870;2023-07-31T13:37:50;3.43;;;2.70;;
19643;SDS011;9970;-36.854;174.870;2023-07-31T13:40:22;4.87;;;2.50;;
19643;SDS011;9970;-36.854;174.870;2023-07-31T13:42:56;2.37;;;1.87;;
19643;SDS011;9970;-36.854;174.870;2023-07-31T13:45:29;6.30;;;2.90;;
19643;SDS011;9970;-36.854;174.870;2023-07-31T13:48:02;2.40;;;2.30;;
19643;SDS011;9970;-36.854;174.870;2023-07-31T13:50:35;3.00;;;2.80;;
19643;SDS011;9970;-36.854;174.870;2023-07-31T13:53:08;1.97;;;1.87;;
19643;SDS011;9970;-36.854;174.870;2023-07-31T13:55:41;2.60;;;2.50;;
19643;SDS011;9970;-36.854;174.870;2023-07-31T13:58:15;2.37;;;2.17;;
19643;SDS011;9970;-36.854;174.870;2023-07-31T14:00:51;4.87;;;2.80;;
19643;SDS011;9970;-36.854;174.870;2023-07-31T14:03:24;2.20;;;2.10;;
19643;SDS011;9970;-36.854;174.870;2023-07-31T14:05:57;4.73;;;2.53;;
19643;SDS011;9970;-36.854;174.870;2023-07-31T14:08:31;2.17;;;1.97;;
19643;SDS011;9970;-36.854;174.870;2023-07-31T14:11:04;3.40;;;2.30;;
19643;SDS011;9970;-36.854;174.870;2023-07-31T14:13:37;2.30;;;2.10;;
19643;SDS011;9970;-36.854;174.870;2023-07-31T14:16:14;3.20;;;2.90;;
19643;SDS011;9970;-36.854;174.870;2023-07-31T14:18:47;2.40;;;1.87;;
19643;SDS011;9970;-36.854;174.870;2023-07-31T14:21:21;2.07;;;1.97;;
19643;SDS011;9970;-36.854;174.870;2023-07-31T14:23:54;1.87;;;1.80;;
19643;SDS011;9970;-36.854;174.870;2023-07-31T14:26:27;1.70;;;1.70;;
19643;SDS011;9970;-36.854;174.870;2023-07-31T14:29:00;3.33;;;1.97;;
19643;SDS011;9970;-36.854;174.870;2023-07-31T14:31:33;1.90;;;1.80;;
19643;SDS011;9970;-36.854;174.870;2023-07-31T14:34:06;4.27;;;3.30;;
19643;SDS011;9970;-36.854;174.870;2023-07-31T14:36:43;6.80;;;4.20;;
19643;SDS011;9970;-36.854;174.870;2023-07-31T14:39:16;2.30;;;2.20;;
19643;SDS011;9970;-36.854;174.870;2023-07-31T14:41:49;2.10;;;2.00;;
19643;SDS011;9970;-36.854;174.870;2023-07-31T14:44:22;3.57;;;2.00;;
19643;SDS011;9970;-36.854;174.870;2023-07-31T14:46:55;3.50;;;2.37;;
19643;SDS011;9970;-36.854;174.870;2023-07-31T14:49:28;4.10;;;2.67;;
19643;SDS011;9970;-36.854;174.870;2023-07-31T14:52:06;3.27;;;1.43;;
19643;SDS011;9970;-36.854;174.870;2023-07-31T14:54:39;3.07;;;2.87;;
19643;SDS011;9970;-36.854;174.870;2023-07-31T14:57:12;7.37;;;3.33;;
19643;SDS011;9970;-36.854;174.870;2023-07-31T14:59:45;3.57;;;3.37;;
19643;SDS011;9970;-36.854;174.870;2023-07-31T15:02:18;2.63;;;2.40;;
19643;SDS011;9970;-36.854;174.870;2023-07-31T15:04:51;2.57;;;2.47;;
19643;SDS011;9970;-36.854;174.870;2023-07-31T15:07:24;2.40;;;2.00;;
19643;SDS011;9970;-36.854;174.870;2023-07-31T15:09:58;1.73;;;1.73;;